Valgardena — ICKG — position and weather

sailwx.info

Track history (hours):
 
Tides and Currents Weather Stations Pressure Air Temp Water Temp Dewpoint Dewpoint Depression Visibility Wind Speed Wind Dir Waves Ship Positions

Valgardena

Last reported at 2017-Aug-18 20:30 UTC. Time now 2017-Aug-18 20:28 UTC.
Position N 37°22' E 006°03'.

Length 184 m; draft 11.2 m.

Type: Ship. MMSI: 247243800.

Date/timePositionNaut miles runAvg speedWind from/ knotsBaromVisibWave heightAir tempDewpointWater temp
2017-Aug-18 20:30N 37°22' E 006°03'611.7
2017-Aug-18 20:00N 37°21' E 005°56'611.9
2017-Aug-18 19:30N 37°20' E 005°49'612.1
2017-Aug-18 18:58N 37°19' E 005°41'612.3
2017-Aug-18 18:31N 37°19' E 005°33'612.2
2017-Aug-18 18:00N 37°18' E 005°26'612.1
2017-Aug-18 17:30N 37°17' E 005°18'612.3
2017-Aug-18 17:00N 37°16' E 005°11'712.3
2017-Aug-18 16:27N 37°15' E 005°02'512.3
2017-Aug-18 16:01N 37°14' E 004°55'612.6
2017-Aug-18 15:30N 37°14' E 004°47'612.7
2017-Aug-18 15:00N 37°13' E 004°40'612.6
2017-Aug-18 14:30N 37°12' E 004°32'1212.2
2017-Aug-18 13:30N 37°10' E 004°17'612.5
2017-Aug-18 13:00N 37°09' E 004°09'612.3
2017-Aug-18 12:31N 37°08' E 004°01'712.2
2017-Aug-18 11:56N 37°07' E 003°53'512.4
2017-Aug-18 11:30N 37°06' E 003°46'612.5
2017-Aug-18 11:00N 37°05' E 003°38'612.5
2017-Aug-18 10:30N 37°04' E 003°30'612.5
2017-Aug-18 10:00N 37°03' E 003°23'712.9
2017-Aug-18 09:30N 37°02' E 003°15'612.5
2017-Aug-18 09:00N 37°01' E 003°07'612.5
2017-Aug-18 08:30N 37°00' E 002°59'612.6
2017-Aug-18 08:01N 36°59' E 002°52'1212.5
2017-Aug-18 07:01N 36°57' E 002°36'112.5
2017-Aug-18 06:57N 36°57' E 002°35'612.4
2017-Aug-18 06:30N 36°56' E 002°28'912.3
2017-Aug-18 05:48N 36°55' E 002°18'4511.7
2017-Aug-18 01:57N 36°48' E 001°22'911.1
2017-Aug-18 01:09N 36°47' E 001°11'211.3
2017-Aug-18 00:59N 36°46' E 001°09'1011.4
2017-Aug-18 00:06N 36°45' E 000°56'111.4
2017-Aug-18 00:00N 36°45' E 000°55'611.8
2017-Aug-17 23:30N 36°44' E 000°48'612.0
2017-Aug-17 23:00N 36°43' E 000°40'612.2
2017-Aug-17 22:31N 36°42' E 000°33'1212.1
2017-Aug-17 21:29N 36°41' E 000°18'712.0
2017-Aug-17 20:54N 36°40' E 000°09'511.9
2017-Aug-17 20:30N 36°39' E 000°03'711.9
2017-Aug-17 19:56N 36°38' W 000°05'1811.5
2017-Aug-17 18:23N 36°35' W 000°27'611.4
2017-Aug-17 17:52N 36°34' W 000°34'411.8
2017-Aug-17 17:31N 36°33' W 000°40'612.0
2017-Aug-17 17:00N 36°32' W 000°47'611.7
2017-Aug-17 16:30N 36°31' W 000°54'611.0
2017-Aug-17 16:00N 36°30' W 001°01'1510.9
2017-Aug-17 14:35N 36°28' W 001°20'112.2
2017-Aug-17 14:30N 36°28' W 001°21'612.1
2017-Aug-17 13:59N 36°27' W 001°29'18213.2
2017-Aug-17 00:14N 36°02' W 005°12'312.8
2017-Aug-17 00:00N 36°01' W 005°15'  
2017-Aug-13 18:18N 36°08' W 005°26'0 0.3
2017-Aug-13 18:00N 36°08' W 005°26'1 1.8
2017-Aug-13 17:19N 36°08' W 005°24'1 3.8
2017-Aug-13 17:00N 36°07' W 005°24'1 1.1
2017-Aug-13 16:29N 36°06' W 005°25'0 0.1
2017-Aug-13 15:59N 36°06' W 005°25'0 0.0
2017-Aug-13 15:29N 36°06' W 005°25'0 0.0
2017-Aug-13 14:59N 36°06' W 005°25'0 0.0
2017-Aug-13 14:29N 36°06' W 005°25'0 0.0
2017-Aug-13 13:59N 36°06' W 005°25'0 0.1
2017-Aug-13 13:29N 36°06' W 005°25'0 0.0
2017-Aug-13 12:59N 36°06' W 005°25'0 0.0
2017-Aug-13 12:29N 36°06' W 005°25'0 0.0
2017-Aug-13 11:59N 36°06' W 005°25'0 0.0
2017-Aug-13 11:29N 36°06' W 005°25'0 0.0
2017-Aug-13 10:59N 36°06' W 005°25'0 0.0
2017-Aug-13 10:29N 36°06' W 005°25'0 0.0
2017-Aug-13 09:53N 36°06' W 005°25'0 0.1
2017-Aug-13 09:29N 36°06' W 005°25'0 0.0
2017-Aug-13 08:59N 36°06' W 005°25'0 0.1
2017-Aug-13 07:50N 36°06' W 005°25'0 0.0
2017-Aug-13 06:23N 36°06' W 005°25'0 0.0
2017-Aug-13 05:44N 36°06' W 005°25'0 0.0
2017-Aug-13 05:08N 36°06' W 005°25'0 0.1
2017-Aug-13 04:59N 36°06' W 005°25'0 0.1
2017-Aug-13 04:26N 36°06' W 005°25'0 0.1
2017-Aug-13 03:59N 36°06' W 005°25'0 0.0
2017-Aug-13 03:29N 36°06' W 005°25'0 0.0
2017-Aug-13 02:59N 36°06' W 005°25'0 0.1
2017-Aug-13 02:26N 36°06' W 005°25'0 0.1
2017-Aug-13 01:59N 36°06' W 005°25'0 0.0
2017-Aug-13 01:29N 36°06' W 005°25'0 0.0
2017-Aug-13 00:59N 36°06' W 005°25'0 0.1
2017-Aug-13 00:17N 36°06' W 005°25'0 0.0
2017-Aug-12 23:56N 36°06' W 005°25'0 0.0
2017-Aug-12 23:29N 36°06' W 005°25'0 0.0
2017-Aug-12 22:53N 36°06' W 005°25'0 0.1
2017-Aug-12 22:23N 36°06' W 005°25'0 0.0
2017-Aug-12 21:41N 36°06' W 005°25'0 0.1
2017-Aug-12 21:29N 36°06' W 005°25'0 0.0
2017-Aug-12 20:59N 36°06' W 005°25'0 0.0
2017-Aug-12 20:14N 36°06' W 005°25'0 0.0
2017-Aug-12 19:56N 36°06' W 005°25'0 0.1
2017-Aug-12 19:14N 36°06' W 005°25'0 0.3
2017-Aug-12 19:01N 36°06' W 005°25'1 1.5
2017-Aug-12 18:31N 36°06' W 005°24'611.0
2017-Aug-12 18:01N 36°06' W 005°17'2 3.6
2017-Aug-12 17:29N 36°07' W 005°15'1 3.1
2017-Aug-12 17:01N 36°06' W 005°17'4 8.4
2017-Aug-12 16:31N 36°05' W 005°22'1 2.6
2017-Aug-12 15:58N 36°05' W 005°23'3 5.4
2017-Aug-12 15:24N 36°02' W 005°24'410.9
2017-Aug-12 15:00N 35°58' W 005°27'611.5
2017-Aug-12 14:30N 35°57' W 005°33'510.5
2017-Aug-12 14:00N 35°56' W 005°40'6 9.7
2017-Aug-12 13:22N 35°55' W 005°47'410.0
2017-Aug-12 12:58N 35°54' W 005°52'9011.4
2017-Aug-12 05:06N 36°11' W 007°41'211.9
2017-Aug-12 04:57N 36°11' W 007°43'3612.7
2017-Aug-12 02:08N 36°20' W 008°26'312.7
2017-Aug-12 01:56N 36°21' W 008°30'2112.5
2017-Aug-12 00:14N 36°25' W 008°55'312.0
2017-Aug-12 00:00N 36°26' W 008°59'612.3
2017-Aug-11 23:30N 36°28' W 009°06'612.5
2017-Aug-11 23:00N 36°29' W 009°13'612.8
2017-Aug-11 22:30N 36°31' W 009°21'612.7
2017-Aug-11 22:00N 36°36' W 009°27'713.1
2017-Aug-11 21:30N 36°41' W 009°32'612.7
2017-Aug-11 21:00N 36°45' W 009°38'713.1
2017-Aug-11 20:30N 36°51' W 009°39'612.8
2017-Aug-11 20:00N 36°58' W 009°41'612.8
2017-Aug-11 19:30N 37°04' W 009°43'612.6
2017-Aug-11 19:00N 37°10' W 009°45'612.7
2017-Aug-11 18:30N 37°16' W 009°47'612.6
2017-Aug-11 18:00N 37°22' W 009°49'612.1
2017-Aug-11 17:30N 37°28' W 009°51'612.3
2017-Aug-11 17:00N 37°34' W 009°52'612.9
2017-Aug-11 16:30N 37°40' W 009°54'713.1
2017-Aug-11 16:00N 37°47' W 009°56'612.9
2017-Aug-11 15:30N 37°53' W 009°57'612.9
2017-Aug-11 15:00N 37°59' W 009°59'612.8
2017-Aug-11 14:30N 38°06' W 010°01'1312.9
2017-Aug-11 13:30N 38°18' W 010°05'713.1
2017-Aug-11 13:00N 38°25' W 010°07'713.4
2017-Aug-11 12:30N 38°31' W 010°09'713.0
2017-Aug-11 12:00N 38°37' W 010°10'713.2
2017-Aug-11 11:30N 38°44' W 010°12'713.4
2017-Aug-11 11:00N 38°51' W 010°12'713.7
2017-Aug-11 10:30N 38°57' W 010°09'713.8
2017-Aug-11 10:00N 39°04' W 010°07'713.8
2017-Aug-11 09:31N 39°10' W 010°04'713.3
2017-Aug-11 09:00N 39°17' W 010°02'713.1
2017-Aug-11 08:30N 39°23' W 009°59'612.9
2017-Aug-11 08:00N 39°29' W 009°57'612.6
2017-Aug-11 07:30N 39°35' W 009°54'612.8
2017-Aug-11 07:01N 39°41' W 009°52'612.8
2017-Aug-11 06:30N 39°48' W 009°49'612.8
2017-Aug-11 06:01N 39°54' W 009°47'612.6
2017-Aug-11 05:30N 39°59' W 009°44'612.7
2017-Aug-11 05:00N 40°05' W 009°41'612.6
2017-Aug-11 04:31N 40°12' W 009°39'612.4
2017-Aug-11 04:00N 40°18' W 009°36'612.6
2017-Aug-11 03:30N 40°24' W 009°34'612.4
2017-Aug-11 02:59N 40°29' W 009°29'612.7
2017-Aug-11 02:30N 40°33' W 009°24'712.9
2017-Aug-11 02:00N 40°38' W 009°18'613.0
2017-Aug-11 01:31N 40°43' W 009°13'612.8
2017-Aug-11 01:00N 40°48' W 009°08'612.8
2017-Aug-11 00:30N 40°53' W 009°02'612.8
2017-Aug-11 00:00N 40°58' W 008°57'  
Track history (hours):
 
Tides and Currents Weather Stations Pressure Air Temp Water Temp Dewpoint Dewpoint Depression Visibility Wind Speed Wind Dir Waves Ship Positions

Valgardena

Last reported at 2017-Aug-18 20:30 UTC. Time now 2017-Aug-18 20:28 UTC.
Position N 37°22' E 006°03'.

Length 184 m; draft 11.2 m.

Type: Ship. MMSI: 247243800.

Date/timePositionNaut miles runAvg speedWind from/ knotsBaromVisibWave heightAir tempDewpointWater temp
2017-Aug-18 20:30N 37°22' E 006°03'611.7
2017-Aug-18 20:00N 37°21' E 005°56'611.9
2017-Aug-18 19:30N 37°20' E 005°49'612.1
2017-Aug-18 18:58N 37°19' E 005°41'612.3
2017-Aug-18 18:31N 37°19' E 005°33'612.2
2017-Aug-18 18:00N 37°18' E 005°26'612.1
2017-Aug-18 17:30N 37°17' E 005°18'612.3
2017-Aug-18 17:00N 37°16' E 005°11'712.3
2017-Aug-18 16:27N 37°15' E 005°02'512.3
2017-Aug-18 16:01N 37°14' E 004°55'612.6
2017-Aug-18 15:30N 37°14' E 004°47'612.7
2017-Aug-18 15:00N 37°13' E 004°40'612.6
2017-Aug-18 14:30N 37°12' E 004°32'1212.2
2017-Aug-18 13:30N 37°10' E 004°17'612.5
2017-Aug-18 13:00N 37°09' E 004°09'612.3
2017-Aug-18 12:31N 37°08' E 004°01'712.2
2017-Aug-18 11:56N 37°07' E 003°53'512.4
2017-Aug-18 11:30N 37°06' E 003°46'612.5
2017-Aug-18 11:00N 37°05' E 003°38'612.5
2017-Aug-18 10:30N 37°04' E 003°30'612.5
2017-Aug-18 10:00N 37°03' E 003°23'712.9
2017-Aug-18 09:30N 37°02' E 003°15'612.5
2017-Aug-18 09:00N 37°01' E 003°07'612.5
2017-Aug-18 08:30N 37°00' E 002°59'612.6
2017-Aug-18 08:01N 36°59' E 002°52'1212.5
2017-Aug-18 07:01N 36°57' E 002°36'112.5
2017-Aug-18 06:57N 36°57' E 002°35'612.4
2017-Aug-18 06:30N 36°56' E 002°28'912.3
2017-Aug-18 05:48N 36°55' E 002°18'4511.7
2017-Aug-18 01:57N 36°48' E 001°22'911.1
2017-Aug-18 01:09N 36°47' E 001°11'211.3
2017-Aug-18 00:59N 36°46' E 001°09'1011.4
2017-Aug-18 00:06N 36°45' E 000°56'111.4
2017-Aug-18 00:00N 36°45' E 000°55'611.8
2017-Aug-17 23:30N 36°44' E 000°48'612.0
2017-Aug-17 23:00N 36°43' E 000°40'612.2
2017-Aug-17 22:31N 36°42' E 000°33'1212.1
2017-Aug-17 21:29N 36°41' E 000°18'712.0
2017-Aug-17 20:54N 36°40' E 000°09'511.9
2017-Aug-17 20:30N 36°39' E 000°03'711.9
2017-Aug-17 19:56N 36°38' W 000°05'1811.5
2017-Aug-17 18:23N 36°35' W 000°27'611.4
2017-Aug-17 17:52N 36°34' W 000°34'411.8
2017-Aug-17 17:31N 36°33' W 000°40'612.0
2017-Aug-17 17:00N 36°32' W 000°47'611.7
2017-Aug-17 16:30N 36°31' W 000°54'611.0
2017-Aug-17 16:00N 36°30' W 001°01'1510.9
2017-Aug-17 14:35N 36°28' W 001°20'112.2
2017-Aug-17 14:30N 36°28' W 001°21'612.1
2017-Aug-17 13:59N 36°27' W 001°29'18213.2
2017-Aug-17 00:14N 36°02' W 005°12'312.8
2017-Aug-17 00:00N 36°01' W 005°15'  
2017-Aug-13 18:18N 36°08' W 005°26'0 0.3
2017-Aug-13 18:00N 36°08' W 005°26'1 1.8
2017-Aug-13 17:19N 36°08' W 005°24'1 3.8
2017-Aug-13 17:00N 36°07' W 005°24'1 1.1
2017-Aug-13 16:29N 36°06' W 005°25'0 0.1
2017-Aug-13 15:59N 36°06' W 005°25'0 0.0
2017-Aug-13 15:29N 36°06' W 005°25'0 0.0
2017-Aug-13 14:59N 36°06' W 005°25'0 0.0
2017-Aug-13 14:29N 36°06' W 005°25'0 0.0
2017-Aug-13 13:59N 36°06' W 005°25'0 0.1
2017-Aug-13 13:29N 36°06' W 005°25'0 0.0
2017-Aug-13 12:59N 36°06' W 005°25'0 0.0
2017-Aug-13 12:29N 36°06' W 005°25'0 0.0
2017-Aug-13 11:59N 36°06' W 005°25'0 0.0
2017-Aug-13 11:29N 36°06' W 005°25'0 0.0
2017-Aug-13 10:59N 36°06' W 005°25'0 0.0
2017-Aug-13 10:29N 36°06' W 005°25'0 0.0
2017-Aug-13 09:53N 36°06' W 005°25'0 0.1
2017-Aug-13 09:29N 36°06' W 005°25'0 0.0
2017-Aug-13 08:59N 36°06' W 005°25'0 0.1
2017-Aug-13 07:50N 36°06' W 005°25'0 0.0
2017-Aug-13 06:23N 36°06' W 005°25'0 0.0
2017-Aug-13 05:44N 36°06' W 005°25'0 0.0
2017-Aug-13 05:08N 36°06' W 005°25'0 0.1
2017-Aug-13 04:59N 36°06' W 005°25'0 0.1
2017-Aug-13 04:26N 36°06' W 005°25'0 0.1
2017-Aug-13 03:59N 36°06' W 005°25'0 0.0
2017-Aug-13 03:29N 36°06' W 005°25'0 0.0
2017-Aug-13 02:59N 36°06' W 005°25'0 0.1
2017-Aug-13 02:26N 36°06' W 005°25'0 0.1
2017-Aug-13 01:59N 36°06' W 005°25'0 0.0
2017-Aug-13 01:29N 36°06' W 005°25'0 0.0
2017-Aug-13 00:59N 36°06' W 005°25'0 0.1
2017-Aug-13 00:17N 36°06' W 005°25'0 0.0
2017-Aug-12 23:56N 36°06' W 005°25'0 0.0
2017-Aug-12 23:29N 36°06' W 005°25'0 0.0
2017-Aug-12 22:53N 36°06' W 005°25'0 0.1
2017-Aug-12 22:23N 36°06' W 005°25'0 0.0
2017-Aug-12 21:41N 36°06' W 005°25'0 0.1
2017-Aug-12 21:29N 36°06' W 005°25'0 0.0
2017-Aug-12 20:59N 36°06' W 005°25'0 0.0
2017-Aug-12 20:14N 36°06' W 005°25'0 0.0
2017-Aug-12 19:56N 36°06' W 005°25'0 0.1
2017-Aug-12 19:14N 36°06' W 005°25'0 0.3
2017-Aug-12 19:01N 36°06' W 005°25'1 1.5
2017-Aug-12 18:31N 36°06' W 005°24'611.0
2017-Aug-12 18:01N 36°06' W 005°17'2 3.6
2017-Aug-12 17:29N 36°07' W 005°15'1 3.1
2017-Aug-12 17:01N 36°06' W 005°17'4 8.4
2017-Aug-12 16:31N 36°05' W 005°22'1 2.6
2017-Aug-12 15:58N 36°05' W 005°23'3 5.4
2017-Aug-12 15:24N 36°02' W 005°24'410.9
2017-Aug-12 15:00N 35°58' W 005°27'611.5
2017-Aug-12 14:30N 35°57' W 005°33'510.5
2017-Aug-12 14:00N 35°56' W 005°40'6 9.7
2017-Aug-12 13:22N 35°55' W 005°47'410.0
2017-Aug-12 12:58N 35°54' W 005°52'9011.4
2017-Aug-12 05:06N 36°11' W 007°41'211.9
2017-Aug-12 04:57N 36°11' W 007°43'3612.7
2017-Aug-12 02:08N 36°20' W 008°26'312.7
2017-Aug-12 01:56N 36°21' W 008°30'2112.5
2017-Aug-12 00:14N 36°25' W 008°55'312.0
2017-Aug-12 00:00N 36°26' W 008°59'612.3
2017-Aug-11 23:30N 36°28' W 009°06'612.5
2017-Aug-11 23:00N 36°29' W 009°13'612.8
2017-Aug-11 22:30N 36°31' W 009°21'612.7
2017-Aug-11 22:00N 36°36' W 009°27'713.1
2017-Aug-11 21:30N 36°41' W 009°32'612.7
2017-Aug-11 21:00N 36°45' W 009°38'713.1
2017-Aug-11 20:30N 36°51' W 009°39'612.8
2017-Aug-11 20:00N 36°58' W 009°41'612.8
2017-Aug-11 19:30N 37°04' W 009°43'612.6
2017-Aug-11 19:00N 37°10' W 009°45'612.7
2017-Aug-11 18:30N 37°16' W 009°47'612.6
2017-Aug-11 18:00N 37°22' W 009°49'612.1
2017-Aug-11 17:30N 37°28' W 009°51'612.3
2017-Aug-11 17:00N 37°34' W 009°52'612.9
2017-Aug-11 16:30N 37°40' W 009°54'713.1
2017-Aug-11 16:00N 37°47' W 009°56'612.9
2017-Aug-11 15:30N 37°53' W 009°57'612.9
2017-Aug-11 15:00N 37°59' W 009°59'612.8
2017-Aug-11 14:30N 38°06' W 010°01'1312.9
2017-Aug-11 13:30N 38°18' W 010°05'713.1
2017-Aug-11 13:00N 38°25' W 010°07'713.4
2017-Aug-11 12:30N 38°31' W 010°09'713.0
2017-Aug-11 12:00N 38°37' W 010°10'713.2
2017-Aug-11 11:30N 38°44' W 010°12'713.4
2017-Aug-11 11:00N 38°51' W 010°12'713.7
2017-Aug-11 10:30N 38°57' W 010°09'713.8
2017-Aug-11 10:00N 39°04' W 010°07'713.8
2017-Aug-11 09:31N 39°10' W 010°04'713.3
2017-Aug-11 09:00N 39°17' W 010°02'713.1
2017-Aug-11 08:30N 39°23' W 009°59'612.9
2017-Aug-11 08:00N 39°29' W 009°57'612.6
2017-Aug-11 07:30N 39°35' W 009°54'612.8
2017-Aug-11 07:01N 39°41' W 009°52'612.8
2017-Aug-11 06:30N 39°48' W 009°49'612.8
2017-Aug-11 06:01N 39°54' W 009°47'612.6
2017-Aug-11 05:30N 39°59' W 009°44'612.7
2017-Aug-11 05:00N 40°05' W 009°41'612.6
2017-Aug-11 04:31N 40°12' W 009°39'612.4
2017-Aug-11 04:00N 40°18' W 009°36'612.6
2017-Aug-11 03:30N 40°24' W 009°34'612.4
2017-Aug-11 02:59N 40°29' W 009°29'612.7
2017-Aug-11 02:30N 40°33' W 009°24'712.9
2017-Aug-11 02:00N 40°38' W 009°18'613.0
2017-Aug-11 01:31N 40°43' W 009°13'612.8
2017-Aug-11 01:00N 40°48' W 009°08'612.8
2017-Aug-11 00:30N 40°53' W 009°02'612.8
2017-Aug-11 00:00N 40°58' W 008°57'  

Dump ship's entire track history